EKKA

Karup Airport

Karup, Denmark
TAF EKKA 142024Z 1421/1518 19008KT 7000 BKN012 TEMPO 1421/1508 2500 -DZRA BR BKN004 BECMG 1508/1511 8000 SCT100 TEMPO 1516/1518 5000 BR
Issued Valid From Valid To
Nov-14 @ 20:24 UTC
(4 hours ago)
Nov-14 @ 21:00 UTC
(3 hours ago)
Nov-15 @ 18:00 UTC
(in 18 hours)
Nov-14 @ 21:00 to Nov-15 @ 08:00
TAF EKKA 142024Z 1421/1518 19008KT 7000 BKN012
Wind Visibility Clouds
190° at 8 knots 7,001 meters
  • Broken at 1,200' AGL
Temporary Nov-14 @ 21:00 to Nov-15 @ 08:00
TEMPO 1421/1508 2500 -DZRA BR BKN004
Visibility Clouds Conditions
2,494 meters
  • Broken at 400' AGL
  • Light Drizzle
  • Light Rain
  • Mist
Becoming Nov-15 @ 08:00 to Nov-15 @ 18:00
BECMG 1508/1511 8000 SCT100
Wind Visibility Clouds
190° at 8 knots 7,998 meters
  • Scattered at 10,000' AGL
Temporary Nov-15 @ 16:00 to Nov-15 @ 18:00
TEMPO 1516/1518 5000 BR
Visibility Conditions
5,005 meters
  • Mist
TAF EKKA 142024Z 1421/1518 19008KT 7000 BKN012 TEMPO 1421/1508 2500 -DZRA BR BKN004 BECMG 1508/1511 8000 SCT100 TEMPO 1516/1518 5000 BR
Issued Nov-14 @ 20:24 UTC
(4 hours ago)
Valid From Nov-14 @ 21:00 UTC
(3 hours ago)
Valid To Nov-15 @ 18:00 UTC
(in 18 hours)
Nov-14 @ 21:00 - Nov-15 @ 08:00
Wind Visibility
190° at 8 knots 7,001 meters
Clouds
  • Broken at 1,200' AGL
Temporary Nov-14 @ 21:00 - Nov-15 @ 08:00
Clouds
  • Broken at 400' AGL
Conditions
  • Light Drizzle
  • Light Rain
  • Mist
Becoming Nov-15 @ 08:00 - Nov-15 @ 18:00
Wind Visibility
190° at 8 knots 7,998 meters
Clouds
  • Scattered at 10,000' AGL
Temporary Nov-15 @ 16:00 - Nov-15 @ 18:00
Conditions
  • Mist